Eastern Oregon Regional At Pendleton Airport
KPDT : rendu visible

Aérodrome :











RETROUVEZ-NOUS SUR...

 
LOGIN :

S'inscrire | Disclaimer

   EN    FR    IT 

 









Légende :    VFR   VFR Marginal   IFR   IFR Intensif   IFR Très Intensif
Visi : 
Plafond : 
>= 8 km
>= 3000ft
5 à 8 km
1000 à 3000 ft
1500m à 5 km
500 à 1000 ft
800 à 1500m
200 à 500 ft
< 800m
< 200 ft
Symboles :   Orages  Brouillard  Fortes neiges  Fortes précipitations  Vent > 20 kt






- Altitude de l'aérodrome : 1497 ft


KPDT - Eastern Oregon Regional At Pendleton

DERNIER METAR :
  • 290853Z AUTO 16008KT 10SM SCT049 BKN060 07/05 A2991 RMK AO2 SLP125 60000 T00670050 58010

METARs EXPIRÉS :
  • 290753Z AUTO 16005KT 10SM BKN055 OVC070 07/06 A2993 RMK AO2 RAB0658E07 SLP130 P0000 T00720056 401440050
  • 290653Z AUTO 15006KT 10SM BKN055 OVC080 08/06 A2994 RMK AO2 RAB26E41 SLP132 P0000 T00830061

TAF KPDT
Valide du 29 à 06h jusqu'au 30 à 06h UTC


290520Z 2906/3006 21008KT P6SM VCSH BKN050 OVC080
FM291200 VRB04KT P6SM VCSH BKN040 OVC070
FM292100 25008G16KT 5SM -RA BR BKN035 OVC050
FM300300 30007KT P6SM SCT060 BKN250



MET'MAP, la Météo Aéronautique d'un coup d'oeil ! - Copyright ORBIFLY Décembre 2007 - Disclaimer

ORBIFLY MET'MAP TEAM :

Programmation & Développement : Alexandra Zaïnal
Sur une idée originale de : Baudouin d'Aumeries
Assistance à la programmation : Marc-Olivier Méhu
Soutien technique & logistique : Manuel Goepfert

Contact : metmap@orbifly.com




SOURCES & CREDITS :

   NOAA       Earth
Advisory